Time;durP1;ratioP1;P1;durP2;ratioP2;P2;SDS_P1;SDS_P2;PMS_P1;PMS_P2;Temp;Humidity;BMP_temperature;BMP_pressure;BME280_temperature;BME280_humidity;BME280_pressure;Samples;Min_cycle;Max_cycle;Signal;HPM_P1;HPM_P2
2021/05/11 00:01:49;;;;;;;8.13;5.40;;;;;;;;;;4962038;28;20205;-58
2021/05/11 00:04:15;;;;;;;7.50;5.13;;;;;;;;;;4973106;28;20271;-59
2021/05/11 00:06:45;;;;;;;5.20;4.70;;;;;;;;;;4968632;28;20669;-60
2021/05/11 00:09:12;;;;;;;5.60;4.80;;;;;;;;;;4969566;28;20235;-60
2021/05/11 00:11:40;;;;;;;5.07;4.57;;;;;;;;;;4963715;28;20268;-59
2021/05/11 00:14:06;;;;;;;5.27;4.60;;;;;;;;;;4973628;28;20616;-60
2021/05/11 00:16:40;;;;;;;5.60;4.95;;;;;;;;;;4967421;28;20213;-59
2021/05/11 00:19:08;;;;;;;5.05;4.55;;;;;;;;;;4970527;28;20700;-63
2021/05/11 00:21:34;;;;;;;5.15;4.68;;;;;;;;;;4961791;28;20291;-59
2021/05/11 00:24:01;;;;;;;5.10;4.70;;;;;;;;;;4970937;28;20232;-59
2021/05/11 00:26:27;;;;;;;5.80;5.17;;;;;;;;;;4967842;28;20185;-65
2021/05/11 00:28:57;;;;;;;6.10;5.00;;;;;;;;;;4966035;28;20681;-58
2021/05/11 00:31:24;;;;;;;5.97;5.43;;;;;;;;;;4970000;28;20255;-59
2021/05/11 00:33:54;;;;;;;7.95;5.60;;;;;;;;;;4968347;28;20220;-58
2021/05/11 00:36:22;;;;;;;7.53;4.90;;;;;;;;;;4967130;28;20295;-60
2021/05/11 00:38:49;;;;;;;6.47;5.20;;;;;;;;;;4967946;28;20632;-61
2021/05/11 00:41:17;;;;;;;8.93;5.55;;;;;;;;;;4971218;28;20202;-59
2021/05/11 00:43:45;;;;;;;6.63;5.87;;;;;;;;;;4970766;28;20195;-59
2021/05/11 00:46:14;;;;;;;7.13;5.93;;;;;;;;;;4969785;28;20199;-59
2021/05/11 00:48:42;;;;;;;6.97;5.95;;;;;;;;;;4965723;28;20260;-60
2021/05/11 00:51:12;;;;;;;8.43;6.22;;;;;;;;;;4968504;28;20562;-62
2021/05/11 00:53:41;;;;;;;7.17;6.50;;;;;;;;;;4984385;23;20235;-60
2021/05/11 00:56:09;;;;;;;7.50;6.70;;;;;;;;;;4991553;28;20227;-60
2021/05/11 00:58:35;;;;;;;9.10;6.40;;;;;;;;;;4987262;28;20190;-58
2021/05/11 01:01:00;;;;;;;6.40;5.57;;;;;;;;;;5003204;28;20632;-60
2021/05/11 01:03:30;;;;;;;6.27;5.67;;;;;;;;;;4984771;28;20260;-60
2021/05/11 01:05:56;;;;;;;5.70;5.18;;;;;;;;;;4973269;28;20196;-61
2021/05/11 01:08:23;;;;;;;6.17;5.57;;;;;;;;;;4963005;28;20219;-60
2021/05/11 01:10:51;;;;;;;6.37;5.80;;;;;;;;;;4973673;28;20598;-58
2021/05/11 01:13:24;;;;;;;6.93;6.30;;;;;;;;;;4968417;28;20213;-60
2021/05/11 01:15:54;;;;;;;6.43;5.82;;;;;;;;;;4967316;28;20267;-60
2021/05/11 01:18:28;;;;;;;5.77;5.17;;;;;;;;;;4964248;28;20279;-60
2021/05/11 01:20:57;;;;;;;6.05;5.18;;;;;;;;;;4963740;28;20192;-59
2021/05/11 01:25:55;;;;;;;5.82;5.22;;;;;;;;;;4968907;28;20540;-60
2021/05/11 01:28:27;;;;;;;5.43;5.03;;;;;;;;;;4968696;28;20192;-62
2021/05/11 01:31:29;;;;;;;6.03;5.10;;;;;;;;;;4966896;28;20235;-61
2021/05/11 01:48:11;;;;;;;6.30;5.72;;;;;;;;;;4974593;28;20226;-60
2021/05/11 02:23:27;;;;;;;6.77;5.27;;;;;;;;;;4975582;28;20351;-59
2021/05/11 02:25:58;;;;;;;10.43;5.73;;;;;;;;;;4968969;28;20203;-59
2021/05/11 02:28:26;;;;;;;6.77;5.40;;;;;;;;;;4969901;28;20207;-60
2021/05/11 02:30:59;;;;;;;7.73;5.67;;;;;;;;;;4969223;28;20193;-59
2021/05/11 02:33:26;;;;;;;6.83;5.03;;;;;;;;;;4972125;28;20211;-60
2021/05/11 02:35:54;;;;;;;5.53;4.93;;;;;;;;;;4964576;28;20220;-60
2021/05/11 02:38:19;;;;;;;7.93;5.93;;;;;;;;;;4961013;28;20204;-60
2021/05/11 02:40:49;;;;;;;5.97;5.37;;;;;;;;;;4974608;28;20590;-60
2021/05/11 02:43:24;;;;;;;6.97;5.40;;;;;;;;;;4968446;28;20209;-59
2021/05/11 02:45:49;;;;;;;7.77;5.37;;;;;;;;;;4968068;28;20188;-59
2021/05/11 02:48:17;;;;;;;7.70;6.60;;;;;;;;;;4967751;28;20203;-59
2021/05/11 02:50:46;;;;;;;6.77;5.70;;;;;;;;;;4975943;28;20228;-59
2021/05/11 02:53:12;;;;;;;8.40;6.33;;;;;;;;;;4977405;28;20251;-59
2021/05/11 02:55:37;;;;;;;7.70;6.37;;;;;;;;;;4974417;28;20574;-60
2021/05/11 02:58:05;;;;;;;6.77;5.63;;;;;;;;;;4966042;28;20193;-60
2021/05/11 03:00:33;;;;;;;9.73;5.90;;;;;;;;;;4973890;28;20872;-59
2021/05/11 03:03:00;;;;;;;6.60;5.97;;;;;;;;;;4967981;28;20615;-60
2021/05/11 03:05:25;;;;;;;6.63;5.47;;;;;;;;;;4965058;28;20193;-60
2021/05/11 03:07:56;;;;;;;6.57;5.67;;;;;;;;;;4966830;28;20736;-59
2021/05/11 03:10:26;;;;;;;6.60;5.20;;;;;;;;;;4968325;28;20211;-59
2021/05/11 03:12:52;;;;;;;5.77;5.27;;;;;;;;;;4972559;28;20220;-62
2021/05/11 03:15:20;;;;;;;7.10;5.67;;;;;;;;;;4973051;28;20650;-65
2021/05/11 03:17:48;;;;;;;7.53;4.90;;;;;;;;;;4968952;28;20643;-60
2021/05/11 03:20:17;;;;;;;7.10;5.10;;;;;;;;;;4964928;28;20192;-59
2021/05/11 03:22:44;;;;;;;5.07;4.40;;;;;;;;;;4975720;28;20226;-61
2021/05/11 03:25:12;;;;;;;5.87;4.73;;;;;;;;;;4973931;28;20697;-62
2021/05/11 03:27:42;;;;;;;5.90;5.30;;;;;;;;;;4968230;28;20196;-60
2021/05/11 03:30:13;;;;;;;5.77;4.80;;;;;;;;;;4966384;28;20192;-60
2021/05/11 03:32:40;;;;;;;5.30;4.80;;;;;;;;;;4971592;28;20204;-60
2021/05/11 03:35:10;;;;;;;6.63;4.90;;;;;;;;;;4969095;28;20231;-60
2021/05/11 03:37:37;;;;;;;5.33;4.43;;;;;;;;;;4967772;28;20215;-61
2021/05/11 03:40:03;;;;;;;4.53;4.13;;;;;;;;;;4961528;28;20198;-60
2021/05/11 03:42:38;;;;;;;6.93;5.18;;;;;;;;;;4969139;28;20243;-60
2021/05/11 03:45:06;;;;;;;7.90;5.80;;;;;;;;;;4972533;28;20220;-60
2021/05/11 03:47:44;;;;;;;9.80;5.67;;;;;;;;;;4973744;28;20180;-61
2021/05/11 03:50:15;;;;;;;6.63;5.97;;;;;;;;;;4962481;28;20252;-61
2021/05/11 03:52:43;;;;;;;8.20;5.73;;;;;;;;;;4960258;28;20330;-59
2021/05/11 03:55:13;;;;;;;6.90;5.87;;;;;;;;;;4971016;28;20217;-60
2021/05/11 03:57:43;;;;;;;8.10;6.63;;;;;;;;;;4972440;28;20220;-60
2021/05/11 04:00:09;;;;;;;6.95;6.00;;;;;;;;;;4972913;28;20214;-59
2021/05/11 04:02:39;;;;;;;8.63;6.50;;;;;;;;;;4982858;28;20566;-59
2021/05/11 04:05:08;;;;;;;9.30;6.23;;;;;;;;;;4969438;28;20209;-59
2021/05/11 04:07:38;;;;;;;8.63;6.63;;;;;;;;;;4970504;28;20188;-61
2021/05/11 04:10:19;;;;;;;8.20;7.23;;;;;;;;;;4973839;28;20256;-60
2021/05/11 04:18:01;;;;;;;8.07;6.67;;;;;;;;;;4962722;28;20204;-59
2021/05/11 04:20:28;;;;;;;6.23;5.63;;;;;;;;;;4968407;28;20189;-60
2021/05/11 04:22:54;;;;;;;5.97;5.30;;;;;;;;;;4976013;28;20196;-59
2021/05/11 04:25:24;;;;;;;5.90;5.40;;;;;;;;;;4967763;28;20196;-59
2021/05/11 04:27:49;;;;;;;7.50;5.83;;;;;;;;;;4972909;28;20199;-58
2021/05/11 04:30:15;;;;;;;6.53;5.93;;;;;;;;;;4970056;28;20193;-61
2021/05/11 04:32:43;;;;;;;6.77;5.63;;;;;;;;;;4967376;28;20192;-61
2021/05/11 04:35:13;;;;;;;5.83;5.23;;;;;;;;;;4970360;28;20271;-60
2021/05/11 04:37:43;;;;;;;7.63;5.37;;;;;;;;;;4969091;28;20214;-61
2021/05/11 04:40:09;;;;;;;6.40;5.73;;;;;;;;;;4968839;28;20207;-59
2021/05/11 04:42:37;;;;;;;7.67;5.90;;;;;;;;;;4962375;28;20620;-60
2021/05/11 04:45:04;;;;;;;10.27;6.43;;;;;;;;;;4971833;28;20212;-58
2021/05/11 04:48:08;;;;;;;7.60;5.87;;;;;;;;;;4972642;28;20204;-60
2021/05/11 04:50:31;;;;;;;7.37;5.83;;;;;;;;;;4968281;28;20337;-60
2021/05/11 04:53:00;;;;;;;7.23;5.60;;;;;;;;;;4974653;28;20221;-60
2021/05/11 04:55:31;;;;;;;6.10;5.40;;;;;;;;;;4970850;28;20212;-63
2021/05/11 04:57:58;;;;;;;6.30;5.30;;;;;;;;;;4973478;28;20195;-60
2021/05/11 05:00:23;;;;;;;6.20;4.80;;;;;;;;;;4986111;28;20661;-62
2021/05/11 05:02:52;;;;;;;7.13;5.40;;;;;;;;;;4988387;28;20199;-60
2021/05/11 05:05:18;;;;;;;8.53;5.23;;;;;;;;;;4971910;28;20197;-60
2021/05/11 05:07:45;;;;;;;6.83;5.50;;;;;;;;;;4974738;28;20291;-60
2021/05/11 05:10:15;;;;;;;8.83;5.20;;;;;;;;;;4970013;28;20577;-59
2021/05/11 05:12:45;;;;;;;7.87;5.37;;;;;;;;;;4992139;28;20255;-60
2021/05/11 05:15:16;;;;;;;5.87;5.37;;;;;;;;;;4963534;28;20720;-60
2021/05/11 05:17:42;;;;;;;5.30;4.80;;;;;;;;;;4963229;28;20212;-61
2021/05/11 05:20:11;;;;;;;7.37;5.50;;;;;;;;;;4967094;28;20669;-60
2021/05/11 05:22:37;;;;;;;9.53;5.40;;;;;;;;;;4964817;28;20536;-61
2021/05/11 05:25:21;;;;;;;8.00;5.50;;;;;;;;;;4969342;28;20209;-59
2021/05/11 05:27:51;;;;;;;6.07;5.00;;;;;;;;;;4962599;28;20186;-62
2021/05/11 05:30:19;;;;;;;6.97;5.57;;;;;;;;;;4962454;28;20838;-64
2021/05/11 05:32:46;;;;;;;6.63;5.93;;;;;;;;;;4959798;28;20725;-61
2021/05/11 05:35:16;;;;;;;5.53;5.00;;;;;;;;;;4961296;28;20587;-60
2021/05/11 05:37:46;;;;;;;5.97;4.97;;;;;;;;;;4961218;28;20189;-60
2021/05/11 05:40:13;;;;;;;4.43;4.03;;;;;;;;;;4973793;28;20731;-60
2021/05/11 05:42:41;;;;;;;5.03;4.20;;;;;;;;;;4970447;28;20677;-63
2021/05/11 05:45:11;;;;;;;8.93;4.10;;;;;;;;;;4969912;28;20209;-59
2021/05/11 05:47:50;;;;;;;10.47;4.23;;;;;;;;;;4974239;28;20200;-59
2021/05/11 05:50:27;;;;;;;4.37;3.60;;;;;;;;;;4976373;28;20190;-60
2021/05/11 05:53:00;;;;;;;7.87;3.50;;;;;;;;;;4970865;28;20298;-60
2021/05/11 05:55:28;;;;;;;4.43;3.57;;;;;;;;;;4960540;28;20861;-59
2021/05/11 05:57:56;;;;;;;4.47;3.47;;;;;;;;;;4960678;28;20204;-60
2021/05/11 06:00:24;;;;;;;4.83;3.37;;;;;;;;;;4976411;28;20684;-62
2021/05/11 06:02:51;;;;;;;4.18;3.60;;;;;;;;;;4969018;28;20204;-60
2021/05/11 06:05:17;;;;;;;4.07;3.50;;;;;;;;;;4969868;28;20191;-59
2021/05/11 06:07:45;;;;;;;6.35;3.70;;;;;;;;;;4970747;28;20200;-60
2021/05/11 06:10:13;;;;;;;4.82;3.50;;;;;;;;;;4967808;28;20200;-61
2021/05/11 06:17:44;;;;;;;6.20;4.00;;;;;;;;;;4963458;28;20196;-63
2021/05/11 06:20:14;;;;;;;4.80;3.63;;;;;;;;;;4959786;28;20195;-65
2021/05/11 06:22:42;;;;;;;4.47;3.63;;;;;;;;;;4963810;28;20931;-60
2021/05/11 06:25:09;;;;;;;5.37;4.10;;;;;;;;;;4962582;28;20703;-59
2021/05/11 06:27:34;;;;;;;5.27;3.23;;;;;;;;;;4959610;28;20193;-60
2021/05/11 06:30:05;;;;;;;6.43;3.90;;;;;;;;;;4965591;28;20731;-61
2021/05/11 06:32:32;;;;;;;4.83;3.57;;;;;;;;;;4964533;28;20275;-61
2021/05/11 06:35:02;;;;;;;3.83;3.50;;;;;;;;;;4956286;28;20224;-59
2021/05/11 06:37:30;;;;;;;4.60;3.27;;;;;;;;;;4953139;28;20189;-67
2021/05/11 06:39:59;;;;;;;4.43;3.25;;;;;;;;;;4961429;28;20211;-59
2021/05/11 06:42:26;;;;;;;5.00;3.27;;;;;;;;;;4961595;28;20701;-61
2021/05/11 06:45:05;;;;;;;6.63;3.70;;;;;;;;;;4987080;28;20586;-60
2021/05/11 06:50:32;;;;;;;5.25;3.60;;;;;;;;;;4967345;28;20192;-59
2021/05/11 06:53:10;;;;;;;4.13;2.90;;;;;;;;;;4965427;28;20188;-64
2021/05/11 06:55:38;;;;;;;3.42;3.13;;;;;;;;;;4952565;28;20507;-59
2021/05/11 06:58:06;;;;;;;5.32;3.05;;;;;;;;;;4957432;28;20195;-60
2021/05/11 07:00:33;;;;;;;4.38;3.33;;;;;;;;;;4955730;28;20654;-61
2021/05/11 07:03:01;;;;;;;5.78;3.58;;;;;;;;;;4962355;28;20599;-60
2021/05/11 07:05:32;;;;;;;5.07;3.63;;;;;;;;;;4957082;28;20185;-61
2021/05/11 07:08:10;;;;;;;6.53;3.20;;;;;;;;;;4960372;28;20199;-59
2021/05/11 07:10:39;;;;;;;6.15;3.22;;;;;;;;;;4977754;28;20189;-62
2021/05/11 07:15:35;;;;;;;5.43;3.63;;;;;;;;;;4959463;28;20290;-60
2021/05/11 07:18:13;;;;;;;4.73;3.50;;;;;;;;;;4970814;28;20320;-57
2021/05/11 07:20:40;;;;;;;3.80;3.33;;;;;;;;;;4973870;28;20203;-62
2021/05/11 07:23:07;;;;;;;5.18;3.60;;;;;;;;;;4966029;28;20251;-61
2021/05/11 07:26:07;;;;;;;5.03;3.58;;;;;;;;;;4988726;28;20187;-59
2021/05/11 07:28:45;;;;;;;6.22;3.20;;;;;;;;;;4966671;28;20200;-60
2021/05/11 07:31:11;;;;;;;4.67;3.33;;;;;;;;;;4969294;28;20270;-62
2021/05/11 07:36:10;;;;;;;3.45;3.15;;;;;;;;;;4968237;28;20365;-58
2021/05/11 07:38:38;;;;;;;3.28;2.83;;;;;;;;;;4963828;28;20231;-61
2021/05/11 07:41:05;;;;;;;3.35;3.05;;;;;;;;;;4973694;28;20234;-63
2021/05/11 07:43:33;;;;;;;3.75;3.38;;;;;;;;;;4973846;28;20220;-64
2021/05/11 07:51:59;;;;;;;5.93;3.20;;;;;;;;;;4974759;28;20220;-62
2021/05/11 08:05:38;;;;;;;3.33;3.03;;;;;;;;;;4971790;28;20262;-59
2021/05/11 08:16:28;;;;;;;3.55;3.25;;;;;;;;;;4976494;28;20367;-59
2021/05/11 08:19:06;;;;;;;4.80;3.40;;;;;;;;;;4968897;28;20184;-65
2021/05/11 08:22:04;;;;;;;4.38;3.60;;;;;;;;;;4969330;28;20191;-65
2021/05/11 08:27:44;;;;;;;5.22;3.50;;;;;;;;;;4952655;28;20704;-59
2021/05/11 08:30:12;;;;;;;6.32;3.50;;;;;;;;;;4972383;28;20197;-58
2021/05/11 08:32:42;;;;;;;4.50;3.40;;;;;;;;;;4970651;28;20205;-58
2021/05/11 08:35:08;;;;;;;3.78;3.13;;;;;;;;;;4973340;28;20234;-60
2021/05/11 08:37:38;;;;;;;5.63;3.65;;;;;;;;;;4971700;28;20655;-59
2021/05/11 08:40:04;;;;;;;4.80;3.35;;;;;;;;;;4965152;28;20727;-59
2021/05/11 08:42:32;;;;;;;4.00;3.58;;;;;;;;;;4971992;28;20196;-59
2021/05/11 08:45:09;;;;;;;4.72;3.63;;;;;;;;;;4969756;28;20217;-58
2021/05/11 08:47:52;;;;;;;5.30;3.65;;;;;;;;;;4978693;28;20800;-59
2021/05/11 08:50:32;;;;;;;6.32;3.80;;;;;;;;;;4971143;28;20188;-59
2021/05/11 09:04:50;;;;;;;5.20;4.18;;;;;;;;;;4970221;28;20782;-60
2021/05/11 09:26:58;;;;;;;5.30;3.67;;;;;;;;;;4971265;28;20235;-59
2021/05/11 09:29:44;;;;;;;5.07;3.88;;;;;;;;;;4971914;28;20197;-57
2021/05/11 10:46:59;;;;;;;4.70;4.20;;;;;;;;;;4971885;28;20197;-57
2021/05/11 10:49:39;;;;;;;8.85;4.65;;;;;;;;;;4970310;28;20193;-58
2021/05/11 10:54:53;;;;;;;5.00;3.83;;;;;;;;;;4968877;28;20819;-57
2021/05/11 10:57:32;;;;;;;5.00;4.50;;;;;;;;;;4968377;28;20547;-57
2021/05/11 11:00:13;;;;;;;6.17;4.50;;;;;;;;;;4962945;28;20469;-58
2021/05/11 11:02:43;;;;;;;4.63;4.22;;;;;;;;;;4963054;28;20195;-57
2021/05/11 11:05:31;;;;;;;7.55;4.35;;;;;;;;;;4961087;28;20272;-60
2021/05/11 11:07:56;;;;;;;7.50;4.43;;;;;;;;;;4963435;28;20937;-61
2021/05/11 11:10:30;;;;;;;5.38;4.78;;;;;;;;;;4968508;28;20196;-57
2021/05/11 11:12:56;;;;;;;7.07;4.47;;;;;;;;;;4959871;28;20215;-57
2021/05/11 11:15:22;;;;;;;5.57;4.38;;;;;;;;;;4963585;28;20204;-57
2021/05/11 11:17:52;;;;;;;5.35;4.85;;;;;;;;;;4978281;28;20184;-59
2021/05/11 11:20:22;;;;;;;5.25;4.72;;;;;;;;;;4962560;28;20951;-63
2021/05/11 11:26:04;;;;;;;5.75;5.10;;;;;;;;;;4969835;28;20191;-58
2021/05/11 11:28:30;;;;;;;4.88;4.47;;;;;;;;;;4967255;28;21259;-59
2021/05/11 11:30:58;;;;;;;8.00;4.85;;;;;;;;;;4971432;28;20657;-61
2021/05/11 11:33:23;;;;;;;5.55;4.20;;;;;;;;;;4969442;28;20244;-57
2021/05/11 11:35:49;;;;;;;5.32;4.82;;;;;;;;;;4963317;28;20244;-60
2021/05/11 11:38:25;;;;;;;5.75;4.78;;;;;;;;;;4970824;28;20188;-59
2021/05/11 11:41:04;;;;;;;6.15;4.63;;;;;;;;;;4966918;28;20235;-59
2021/05/11 11:43:30;;;;;;;5.93;4.78;;;;;;;;;;4971988;28;20263;-60
2021/05/11 11:46:01;;;;;;;5.88;4.88;;;;;;;;;;4976564;28;20200;-61
2021/05/11 11:48:26;;;;;;;6.32;4.78;;;;;;;;;;4975581;28;20202;-57
2021/05/11 11:50:57;;;;;;;5.68;4.80;;;;;;;;;;4971583;28;20275;-56
2021/05/11 11:53:28;;;;;;;5.32;4.63;;;;;;;;;;4972274;28;20212;-57
2021/05/11 11:56:21;;;;;;;5.22;4.45;;;;;;;;;;4967863;28;20215;-57
2021/05/11 11:58:40;;;;;;;5.38;4.40;;;;;;;;;;4966398;28;20288;-57
2021/05/11 12:01:18;;;;;;;4.80;4.30;;;;;;;;;;4971510;28;20228;-57
2021/05/11 12:03:44;;;;;;;6.70;4.53;;;;;;;;;;4969609;28;20320;-58
2021/05/11 12:06:15;;;;;;;4.50;4.05;;;;;;;;;;4969365;28;20181;-57
2021/05/11 12:08:41;;;;;;;5.57;4.20;;;;;;;;;;4969993;28;20193;-59
2021/05/11 12:11:09;;;;;;;4.32;3.92;;;;;;;;;;4973634;28;20185;-58
2021/05/11 12:13:38;;;;;;;6.72;4.28;;;;;;;;;;4973451;28;20277;-57
2021/05/11 12:16:17;;;;;;;5.97;4.03;;;;;;;;;;4966212;28;20258;-61
2021/05/11 12:19:16;;;;;;;6.53;4.10;;;;;;;;;;4962588;28;20573;-60
2021/05/11 12:22:04;;;;;;;5.32;4.13;;;;;;;;;;4979002;28;20192;-57
2021/05/11 12:24:34;;;;;;;7.18;4.40;;;;;;;;;;4970824;28;20259;-59
2021/05/11 12:27:11;;;;;;;5.13;3.97;;;;;;;;;;4975251;28;20227;-59
2021/05/11 12:29:56;;;;;;;8.02;3.65;;;;;;;;;;4969017;28;20996;-59
2021/05/11 12:32:22;;;;;;;6.03;3.70;;;;;;;;;;4973774;28;20199;-60
2021/05/11 12:35:03;;;;;;;6.05;3.47;;;;;;;;;;4983268;28;20208;-59
2021/05/11 12:37:52;;;;;;;5.35;3.72;;;;;;;;;;4979362;28;20561;-60
2021/05/11 12:40:25;;;;;;;4.53;3.42;;;;;;;;;;4980297;28;20195;-57
2021/05/11 12:42:56;;;;;;;5.00;3.50;;;;;;;;;;4972565;28;20195;-56
2021/05/11 12:45:28;;;;;;;6.03;3.83;;;;;;;;;;4981286;28;20176;-59
2021/05/11 12:48:07;;;;;;;8.52;3.60;;;;;;;;;;4981676;28;20603;-59
2021/05/11 12:50:40;;;;;;;4.13;3.28;;;;;;;;;;4969876;28;20575;-57
2021/05/11 12:53:38;;;;;;;6.00;3.55;;;;;;;;;;4988039;28;20227;-59
2021/05/11 13:28:07;;;;;;;4.68;3.40;;;;;;;;;;4971938;28;20200;-61
2021/05/11 13:31:02;;;;;;;4.55;3.90;;;;;;;;;;4966533;28;20708;-60
2021/05/11 13:33:30;;;;;;;4.68;3.90;;;;;;;;;;4965501;28;20216;-59
2021/05/11 13:35:57;;;;;;;6.13;4.10;;;;;;;;;;4965783;28;20216;-57
2021/05/11 13:38:25;;;;;;;6.07;3.42;;;;;;;;;;4963984;28;20204;-59
2021/05/11 13:40:53;;;;;;;5.93;3.78;;;;;;;;;;4966587;28;20272;-59
2021/05/11 13:43:21;;;;;;;6.05;3.25;;;;;;;;;;4965690;28;20216;-59
2021/05/11 13:45:48;;;;;;;7.32;4.38;;;;;;;;;;4969039;28;20834;-60
2021/05/11 13:48:21;;;;;;;7.57;3.88;;;;;;;;;;4965885;28;20216;-59
2021/05/11 13:50:55;;;;;;;5.80;3.80;;;;;;;;;;4969237;28;20197;-59
2021/05/11 13:53:23;;;;;;;4.35;3.65;;;;;;;;;;4977824;28;20215;-59
2021/05/11 13:56:12;;;;;;;5.97;3.50;;;;;;;;;;4973225;28;20200;-60
2021/05/11 14:04:10;;;;;;;6.38;3.40;;;;;;;;;;4964768;28;20239;-59
2021/05/11 14:06:37;;;;;;;4.80;3.70;;;;;;;;;;4967598;28;20213;-60
2021/05/11 14:09:06;;;;;;;6.10;3.90;;;;;;;;;;4970774;28;20667;-58
2021/05/11 14:11:33;;;;;;;6.80;4.00;;;;;;;;;;4972024;28;20226;-60
2021/05/11 14:14:01;;;;;;;6.97;4.00;;;;;;;;;;4969602;28;20686;-60
2021/05/11 14:16:29;;;;;;;6.95;4.13;;;;;;;;;;4969825;28;20247;-66
2021/05/11 14:18:56;;;;;;;5.78;3.85;;;;;;;;;;4969257;28;20208;-57
2021/05/11 14:21:22;;;;;;;5.65;4.32;;;;;;;;;;4970276;28;20219;-57
2021/05/11 14:23:48;;;;;;;5.75;3.95;;;;;;;;;;4971393;28;20664;-58
2021/05/11 14:26:15;;;;;;;6.20;3.53;;;;;;;;;;4987788;28;20256;-57
2021/05/11 14:28:45;;;;;;;5.50;4.05;;;;;;;;;;4972938;28;20285;-59
2021/05/11 14:31:13;;;;;;;5.63;3.90;;;;;;;;;;4967133;28;20191;-61
2021/05/11 14:33:43;;;;;;;6.00;3.80;;;;;;;;;;4967645;28;20267;-62
2021/05/11 14:36:10;;;;;;;5.82;3.70;;;;;;;;;;4975613;28;20266;-58
2021/05/11 14:38:37;;;;;;;7.07;4.00;;;;;;;;;;4966792;28;20291;-58
2021/05/11 14:41:03;;;;;;;6.70;4.43;;;;;;;;;;4971312;28;20591;-59
2021/05/11 14:43:34;;;;;;;5.10;4.18;;;;;;;;;;4972026;28;20244;-60
2021/05/11 14:46:03;;;;;;;5.90;3.92;;;;;;;;;;4971398;28;20199;-60
2021/05/11 14:48:34;;;;;;;5.18;4.65;;;;;;;;;;4966248;28;20548;-59
2021/05/11 14:51:02;;;;;;;4.45;3.90;;;;;;;;;;4975398;28;20228;-59
2021/05/11 14:53:29;;;;;;;9.07;4.53;;;;;;;;;;4964906;28;20220;-58
2021/05/11 14:55:54;;;;;;;7.55;3.95;;;;;;;;;;4965387;28;20220;-60
2021/05/11 14:58:22;;;;;;;5.53;3.47;;;;;;;;;;4972477;28;20562;-60
2021/05/11 15:00:50;;;;;;;6.03;3.90;;;;;;;;;;4975273;28;20672;-62
2021/05/11 15:03:18;;;;;;;8.77;4.20;;;;;;;;;;5004565;23;20231;-57
2021/05/11 15:05:44;;;;;;;6.10;3.92;;;;;;;;;;4988162;28;20893;-56
2021/05/11 15:08:09;;;;;;;5.03;3.72;;;;;;;;;;4987187;28;20199;-57
2021/05/11 15:10:35;;;;;;;4.93;3.70;;;;;;;;;;5002905;28;20192;-56
2021/05/11 15:13:01;;;;;;;7.25;3.95;;;;;;;;;;4987166;28;20270;-55
2021/05/11 15:15:27;;;;;;;6.13;3.55;;;;;;;;;;4977403;28;20216;-56
2021/05/11 15:20:21;;;;;;;5.43;4.10;;;;;;;;;;4984231;28;20246;-57
2021/05/11 15:22:51;;;;;;;4.13;3.15;;;;;;;;;;4986344;28;20616;-57
2021/05/11 15:25:18;;;;;;;4.60;4.20;;;;;;;;;;4984291;28;20279;-57
2021/05/11 15:27:46;;;;;;;6.03;4.03;;;;;;;;;;4983997;28;20188;-57
2021/05/11 15:30:12;;;;;;;8.25;4.68;;;;;;;;;;4985373;28;20659;-56
2021/05/11 15:32:47;;;;;;;7.95;4.43;;;;;;;;;;4986597;28;20196;-57
2021/05/11 15:35:17;;;;;;;6.15;3.60;;;;;;;;;;4983120;28;20183;-57
2021/05/11 15:37:52;;;;;;;6.65;4.32;;;;;;;;;;4982680;28;20192;-57
2021/05/11 15:40:21;;;;;;;7.45;3.88;;;;;;;;;;4985674;28;20740;-58
2021/05/11 15:42:46;;;;;;;6.22;3.92;;;;;;;;;;4987224;28;20734;-57
2021/05/11 15:45:13;;;;;;;5.75;3.97;;;;;;;;;;4984714;28;20195;-57
2021/05/11 15:47:51;;;;;;;5.63;4.18;;;;;;;;;;4985859;28;20208;-54
2021/05/11 15:50:17;;;;;;;7.97;4.30;;;;;;;;;;4984746;28;20195;-56
2021/05/11 15:52:42;;;;;;;7.53;4.70;;;;;;;;;;4978466;28;20226;-55
2021/05/11 15:55:10;;;;;;;6.80;4.50;;;;;;;;;;4991946;28;20184;-56
2021/05/11 15:57:35;;;;;;;6.15;4.65;;;;;;;;;;5005439;28;20188;-56
2021/05/11 16:00:01;;;;;;;5.60;4.07;;;;;;;;;;5004508;28;20203;-56
2021/05/11 16:02:26;;;;;;;7.07;4.43;;;;;;;;;;4994735;28;20215;-56
2021/05/11 16:04:51;;;;;;;4.37;3.97;;;;;;;;;;4986991;28;20533;-55
2021/05/11 16:07:17;;;;;;;9.07;4.13;;;;;;;;;;4991188;28;20188;-56
2021/05/11 16:09:44;;;;;;;5.97;4.18;;;;;;;;;;4987716;28;20224;-56
2021/05/11 16:12:12;;;;;;;5.53;4.00;;;;;;;;;;4986193;28;20219;-56
2021/05/11 16:14:38;;;;;;;4.23;3.67;;;;;;;;;;4987490;28;20189;-56
2021/05/11 16:17:03;;;;;;;5.97;3.90;;;;;;;;;;4989001;28;20271;-56
2021/05/11 16:19:29;;;;;;;4.25;3.47;;;;;;;;;;4987532;28;20196;-56
2021/05/11 16:21:55;;;;;;;6.75;3.83;;;;;;;;;;4989757;28;20580;-56
2021/05/11 16:24:20;;;;;;;7.63;3.72;;;;;;;;;;4989741;28;20188;-56
2021/05/11 16:26:48;;;;;;;6.63;4.10;;;;;;;;;;4987493;28;20216;-55
2021/05/11 16:29:13;;;;;;;9.33;4.27;;;;;;;;;;4987837;28;20214;-57
2021/05/11 16:31:38;;;;;;;7.17;3.90;;;;;;;;;;4986943;28;20642;-57
2021/05/11 16:34:04;;;;;;;7.97;3.97;;;;;;;;;;4989558;28;20207;-57
2021/05/11 16:36:30;;;;;;;5.80;3.63;;;;;;;;;;4987245;28;20627;-56
2021/05/11 16:38:55;;;;;;;5.23;3.97;;;;;;;;;;4986992;28;20200;-57
2021/05/11 16:41:20;;;;;;;6.53;4.17;;;;;;;;;;4988207;28;20211;-57
2021/05/11 16:43:46;;;;;;;6.18;3.55;;;;;;;;;;4987104;28;20208;-57
2021/05/11 16:46:13;;;;;;;5.70;3.83;;;;;;;;;;4988863;28;20574;-59
2021/05/11 16:48:41;;;;;;;5.55;3.90;;;;;;;;;;4987277;28;20557;-56
2021/05/11 16:51:06;;;;;;;4.75;3.65;;;;;;;;;;4988832;28;20556;-57
2021/05/11 16:53:31;;;;;;;7.45;3.50;;;;;;;;;;4988128;28;20286;-57
2021/05/11 16:55:59;;;;;;;5.55;3.60;;;;;;;;;;4987332;28;20270;-54
2021/05/11 16:58:25;;;;;;;6.05;3.65;;;;;;;;;;4985211;28;20184;-57
2021/05/11 17:00:50;;;;;;;5.07;3.28;;;;;;;;;;4983000;28;20191;-55
2021/05/11 17:03:16;;;;;;;5.03;3.40;;;;;;;;;;4990146;28;20615;-55
2021/05/11 17:05:42;;;;;;;8.27;3.10;;;;;;;;;;4987640;28;20215;-56
2021/05/11 17:08:10;;;;;;;5.90;3.27;;;;;;;;;;4985015;28;20641;-57
2021/05/11 17:10:36;;;;;;;4.32;3.20;;;;;;;;;;4987811;28;20196;-57
2021/05/11 17:13:05;;;;;;;5.27;3.30;;;;;;;;;;4985771;28;20243;-55
2021/05/11 17:15:31;;;;;;;5.40;3.20;;;;;;;;;;4987983;28;20356;-55
2021/05/11 17:17:57;;;;;;;4.40;2.83;;;;;;;;;;4986983;28;20659;-57
2021/05/11 17:20:26;;;;;;;6.00;3.20;;;;;;;;;;4985101;28;20691;-57
2021/05/11 17:22:52;;;;;;;4.37;3.10;;;;;;;;;;4985860;28;20208;-57
2021/05/11 17:25:18;;;;;;;4.87;2.80;;;;;;;;;;4988522;28;20192;-57
2021/05/11 17:27:44;;;;;;;4.40;3.17;;;;;;;;;;4985219;28;20270;-58
2021/05/11 17:30:13;;;;;;;4.43;2.80;;;;;;;;;;4986122;28;20191;-57
2021/05/11 17:32:41;;;;;;;7.03;2.93;;;;;;;;;;4986491;28;20211;-57
2021/05/11 17:35:10;;;;;;;5.53;3.30;;;;;;;;;;4987970;28;20208;-56
2021/05/11 17:37:35;;;;;;;4.65;2.50;;;;;;;;;;4985777;28;20196;-58
2021/05/11 17:40:01;;;;;;;5.43;3.03;;;;;;;;;;4987699;28;20225;-56
2021/05/11 17:42:26;;;;;;;3.80;2.80;;;;;;;;;;4986348;28;20215;-57
2021/05/11 17:44:52;;;;;;;5.10;2.90;;;;;;;;;;4984724;28;20188;-58
2021/05/11 17:47:19;;;;;;;5.17;3.27;;;;;;;;;;4994685;28;20190;-57
2021/05/11 17:49:45;;;;;;;4.13;2.70;;;;;;;;;;5004603;28;20287;-58
2021/05/11 17:52:10;;;;;;;4.73;3.00;;;;;;;;;;4982957;28;20295;-56
2021/05/11 17:54:36;;;;;;;5.07;2.60;;;;;;;;;;4981154;28;20664;-55
2021/05/11 17:57:02;;;;;;;6.47;2.87;;;;;;;;;;4976723;28;20207;-55
2021/05/11 17:59:27;;;;;;;5.17;2.90;;;;;;;;;;4981331;28;20188;-54
2021/05/11 18:01:52;;;;;;;5.60;3.10;;;;;;;;;;4980823;28;20680;-56
2021/05/11 18:04:20;;;;;;;5.80;3.33;;;;;;;;;;4984094;28;20191;-55
2021/05/11 18:06:45;;;;;;;5.97;2.90;;;;;;;;;;4982500;28;20184;-54
2021/05/11 18:09:12;;;;;;;5.07;3.10;;;;;;;;;;4981570;28;20215;-55
2021/05/11 18:11:37;;;;;;;6.17;3.53;;;;;;;;;;4984698;28;20195;-55
2021/05/11 18:14:03;;;;;;;4.80;3.10;;;;;;;;;;4984504;28;20212;-55
2021/05/11 18:16:28;;;;;;;4.33;3.50;;;;;;;;;;4977896;28;20255;-55
2021/05/11 18:18:54;;;;;;;6.50;3.20;;;;;;;;;;4982571;28;20671;-56
2021/05/11 18:21:19;;;;;;;4.83;3.30;;;;;;;;;;4979758;28;20176;-56
2021/05/11 18:23:44;;;;;;;4.93;3.30;;;;;;;;;;4984159;28;20807;-57
2021/05/11 18:26:10;;;;;;;4.50;3.43;;;;;;;;;;4983050;28;20218;-55
2021/05/11 18:28:37;;;;;;;7.50;3.40;;;;;;;;;;4986279;28;20196;-55
2021/05/11 18:31:05;;;;;;;6.83;3.40;;;;;;;;;;4981555;28;20247;-55
2021/05/11 18:33:32;;;;;;;4.43;3.43;;;;;;;;;;4983789;28;20239;-56
2021/05/11 18:36:11;;;;;;;5.63;3.73;;;;;;;;;;4978582;28;20211;-57
2021/05/11 18:38:45;;;;;;;6.07;4.10;;;;;;;;;;4983289;28;20203;-56
2021/05/11 18:41:14;;;;;;;7.07;4.20;;;;;;;;;;4987279;28;20187;-54
2021/05/11 18:43:39;;;;;;;6.57;4.70;;;;;;;;;;4983799;28;20226;-54
2021/05/11 18:46:05;;;;;;;8.40;5.37;;;;;;;;;;4980428;28;20180;-56
2021/05/11 18:48:32;;;;;;;9.33;5.37;;;;;;;;;;4986549;28;20196;-55
2021/05/11 18:50:57;;;;;;;9.67;5.20;;;;;;;;;;4984700;28;20196;-56
2021/05/11 18:53:23;;;;;;;9.33;5.50;;;;;;;;;;4984737;28;20273;-54
2021/05/11 18:55:49;;;;;;;12.90;6.07;;;;;;;;;;4981998;28;20260;-56
2021/05/11 18:58:14;;;;;;;13.90;6.17;;;;;;;;;;4978731;28;20200;-58
2021/05/11 19:00:39;;;;;;;10.37;6.00;;;;;;;;;;4981682;28;20673;-55
2021/05/11 19:03:05;;;;;;;11.60;6.17;;;;;;;;;;4981971;28;20695;-57
2021/05/11 19:05:30;;;;;;;5.20;4.43;;;;;;;;;;4983509;28;20200;-57